createdAt,value
2023-02-27T00:01:33.217Z,62.78
2023-02-27T00:04:36.239Z,63.07
2023-02-27T00:07:39.075Z,62.80
2023-02-27T00:10:42.122Z,62.28
2023-02-27T00:13:44.871Z,61.67
2023-02-27T00:16:47.997Z,61.48
2023-02-27T00:19:53.835Z,61.65
2023-02-27T00:22:56.956Z,61.92
2023-02-27T00:26:01.098Z,62.18
2023-02-27T00:29:04.813Z,61.98
2023-02-27T00:32:07.567Z,62.55
2023-02-27T00:35:12.520Z,63.35
2023-02-27T00:38:15.361Z,64.22
2023-02-27T00:41:18.333Z,63.71
2023-02-27T00:44:20.908Z,63.55
2023-02-27T00:47:24.583Z,63.44
2023-02-27T00:50:29.748Z,62.72
2023-02-27T00:53:33.086Z,62.65
2023-02-27T00:56:36.861Z,62.88
2023-02-27T00:59:39.969Z,62.78
2023-02-27T01:02:42.786Z,62.86
2023-02-27T01:05:46.221Z,62.72
2023-02-27T01:08:49.151Z,62.91
2023-02-27T01:11:52.402Z,62.81
2023-02-27T01:14:55.146Z,63.28
2023-02-27T01:17:58.846Z,63.18
2023-02-27T01:21:05.098Z,63.34
2023-02-27T01:24:09.149Z,62.91
2023-02-27T01:27:11.773Z,62.59
2023-02-27T01:30:16.830Z,61.88
2023-02-27T01:33:20.423Z,61.36
2023-02-27T01:36:24.153Z,61.40
2023-02-27T01:39:27.708Z,61.04
2023-02-27T01:42:31.372Z,61.85
2023-02-27T01:45:44.108Z,61.79
2023-02-27T01:48:49.005Z,61.39
2023-02-27T01:52:03.080Z,61.56
2023-02-27T01:55:08.915Z,61.44
2023-02-27T01:58:13.522Z,61.55
2023-02-27T02:01:17.721Z,61.00
2023-02-27T02:04:47.264Z,62.09
2023-02-27T02:07:50.468Z,62.00
2023-02-27T02:10:55.506Z,62.32
2023-02-27T02:14:00.790Z,62.29
2023-02-27T02:17:31.609Z,62.39
2023-02-27T02:21:16.501Z,63.98
2023-02-27T02:24:34.953Z,60.95
2023-02-27T02:27:46.412Z,60.54
2023-02-27T02:30:58.473Z,59.96
2023-02-27T02:34:29.396Z,59.88
2023-02-27T02:37:48.167Z,59.52
2023-02-27T02:41:04.344Z,58.67
2023-02-27T02:44:33.446Z,57.85
2023-02-27T02:47:42.368Z,57.83
2023-02-27T02:50:55.748Z,57.21
2023-02-27T02:54:25.229Z,56.90
2023-02-27T02:57:48.559Z,57.14
2023-02-27T03:01:02.178Z,57.16
2023-02-27T03:04:13.432Z,57.21
2023-02-27T03:07:46.811Z,57.56
2023-02-27T03:10:58.111Z,57.28
2023-02-27T03:14:05.966Z,57.40
2023-02-27T03:17:16.863Z,57.64
2023-02-27T03:20:29.574Z,57.65
2023-02-27T03:23:40.746Z,57.35
2023-02-27T03:26:47.796Z,57.32
2023-02-27T03:29:59.389Z,57.78
2023-02-27T03:33:09.652Z,57.65
2023-02-27T03:36:27.575Z,57.50
2023-02-27T03:40:00.483Z,57.49
2023-02-27T03:43:24.765Z,57.71
2023-02-27T03:46:28.762Z,57.83
2023-02-27T03:49:31.660Z,57.93
2023-02-27T03:52:34.862Z,57.83
2023-02-27T03:55:43.378Z,57.71
2023-02-27T03:58:46.615Z,57.23
2023-02-27T04:01:50.190Z,56.77
2023-02-27T04:04:53.452Z,57.58
2023-02-27T04:08:10.720Z,56.40
2023-02-27T04:11:29.817Z,56.09
2023-02-27T04:14:56.614Z,56.13
2023-02-27T04:18:05.620Z,56.61
2023-02-27T04:21:14.392Z,56.87
2023-02-27T04:24:33.447Z,56.62
2023-02-27T04:28:17.469Z,56.26
2023-02-27T04:31:54.950Z,56.66
2023-02-27T04:35:04.452Z,56.85
2023-02-27T04:38:20.309Z,56.51
2023-02-27T04:41:29.419Z,56.50
2023-02-27T04:44:36.315Z,56.37
2023-02-27T04:47:59.156Z,56.14
2023-02-27T04:51:13.989Z,56.17
2023-02-27T04:54:21.656Z,56.05
2023-02-27T04:57:31.982Z,56.18
2023-02-27T05:00:37.561Z,56.28
2023-02-27T05:03:47.084Z,55.59
2023-02-27T05:06:51.105Z,55.74
2023-02-27T05:10:05.320Z,55.65
2023-02-27T05:13:15.050Z,55.11
2023-02-27T05:16:27.131Z,55.65
2023-02-27T05:19:32.629Z,55.37
2023-02-27T05:22:53.514Z,55.49
2023-02-27T05:26:14.472Z,55.81
2023-02-27T05:29:42.381Z,55.91
2023-02-27T05:33:01.935Z,55.65
2023-02-27T05:36:43.810Z,55.72
2023-02-27T05:39:49.015Z,56.15
2023-02-27T05:43:02.282Z,56.09
2023-02-27T05:46:11.516Z,56.09
2023-02-27T05:49:20.581Z,55.98
2023-02-27T05:52:25.853Z,56.32
2023-02-27T05:55:59.970Z,56.52
2023-02-27T05:59:10.025Z,56.38
2023-02-27T06:02:14.260Z,56.81
2023-02-27T06:05:18.728Z,56.98
2023-02-27T06:08:22.992Z,56.94
2023-02-27T06:11:25.973Z,56.64
2023-02-27T06:14:28.645Z,57.35
2023-02-27T06:17:31.971Z,57.22
2023-02-27T06:20:34.819Z,57.07
2023-02-27T06:23:40.317Z,56.72
2023-02-27T06:26:43.551Z,56.39
2023-02-27T06:29:47.411Z,55.86
2023-02-27T06:32:50.209Z,55.74
2023-02-27T06:35:53.666Z,55.25
2023-02-27T06:38:58.102Z,55.60
2023-02-27T06:42:02.106Z,55.29
2023-02-27T06:45:09.617Z,54.47
2023-02-27T06:48:15.774Z,53.91
2023-02-27T06:51:18.524Z,53.91
2023-02-27T06:54:23.361Z,53.34
2023-02-27T06:57:26.401Z,53.49
2023-02-27T07:00:30.057Z,53.22
2023-02-27T07:03:33.044Z,53.61
2023-02-27T07:07:35.189Z,52.83
2023-02-27T07:09:58.893Z,51.89
2023-02-27T07:13:03.446Z,50.69
2023-02-27T07:16:06.718Z,49.26
2023-02-27T07:19:11.478Z,48.72
2023-02-27T07:22:14.355Z,47.97
2023-02-27T07:25:17.433Z,47.23
2023-02-27T07:28:20.605Z,47.41
2023-02-27T07:31:23.721Z,47.20
2023-02-27T07:34:26.494Z,47.80
2023-02-27T07:37:29.920Z,47.15
2023-02-27T07:40:33.029Z,48.30
2023-02-27T07:43:36.727Z,48.37
2023-02-27T07:46:39.345Z,46.50
2023-02-27T07:49:51.153Z,45.90
2023-02-27T07:52:56.684Z,46.82
2023-02-27T07:56:01.705Z,46.24
2023-02-27T07:59:04.465Z,45.43
2023-02-27T08:02:07.692Z,46.00
2023-02-27T08:05:12.194Z,46.26
2023-02-27T08:08:14.968Z,45.34
2023-02-27T08:11:18.590Z,45.38
2023-02-27T08:14:21.447Z,46.46
2023-02-27T08:17:24.434Z,44.96
2023-02-27T08:20:28.310Z,44.56
2023-02-27T08:23:35.041Z,44.64
2023-02-27T08:26:37.688Z,44.89
2023-02-27T08:29:43.640Z,45.01
2023-02-27T08:32:46.571Z,46.05
2023-02-27T08:35:49.605Z,45.60
2023-02-27T08:38:52.153Z,45.41
2023-02-27T08:41:58.529Z,46.53
2023-02-27T08:45:02.821Z,45.97
2023-02-27T08:48:06.076Z,47.56
2023-02-27T08:51:13.389Z,46.16
2023-02-27T08:54:19.166Z,45.55
2023-02-27T08:57:22.169Z,47.17
2023-02-27T09:00:25.414Z,51.90
2023-02-27T09:03:28.941Z,49.33
2023-02-27T09:06:34.355Z,47.40
2023-02-27T09:09:37.034Z,45.26
2023-02-27T09:12:40.084Z,44.40
2023-02-27T09:15:42.759Z,46.21
2023-02-27T09:18:46.510Z,46.15
2023-02-27T09:21:49.323Z,45.78
2023-02-27T09:24:52.729Z,46.52
2023-02-27T09:27:56.331Z,45.43
2023-02-27T09:31:04.924Z,45.57
2023-02-27T09:34:08.327Z,45.67
2023-02-27T09:37:11.360Z,45.27
2023-02-27T09:40:40.513Z,44.09
2023-02-27T09:43:47.440Z,45.15
2023-02-27T09:46:50.452Z,43.42
2023-02-27T09:50:01.749Z,43.44
2023-02-27T09:53:07.422Z,43.43
2023-02-27T09:56:19.625Z,42.06
2023-02-27T09:59:44.317Z,41.77
2023-02-27T10:02:59.963Z,41.66
2023-02-27T10:06:19.782Z,41.40
2023-02-27T10:09:44.366Z,41.50
2023-02-27T10:13:11.135Z,41.16
2023-02-27T10:16:18.169Z,41.42
2023-02-27T10:19:28.545Z,41.09
2023-02-27T10:22:36.194Z,40.41
2023-02-27T10:25:46.860Z,39.65
2023-02-27T10:28:49.806Z,38.51
2023-02-27T10:32:22.000Z,38.57
2023-02-27T10:35:37.634Z,38.65
2023-02-27T10:38:51.780Z,40.11
2023-02-27T10:41:57.058Z,38.64
2023-02-27T10:45:00.125Z,35.87
2023-02-27T10:48:04.989Z,36.94
2023-02-27T10:51:25.501Z,38.67
2023-02-27T10:54:28.423Z,38.90
2023-02-27T10:57:42.907Z,37.68
2023-02-27T11:00:53.583Z,36.97
2023-02-27T11:03:57.539Z,35.26
2023-02-27T11:07:03.287Z,32.42
2023-02-27T11:10:17.618Z,35.77
2023-02-27T11:13:23.019Z,36.02
2023-02-27T11:16:26.420Z,36.51
2023-02-27T11:19:36.702Z,36.35
2023-02-27T11:22:41.701Z,33.76
2023-02-27T11:25:44.839Z,35.59
2023-02-27T11:29:04.767Z,32.14
2023-02-27T11:32:16.446Z,35.51
2023-02-27T11:35:34.949Z,34.62
2023-02-27T11:38:37.934Z,35.87
2023-02-27T11:41:44.921Z,36.13
2023-02-27T11:44:57.071Z,35.71
2023-02-27T11:48:20.685Z,37.01
2023-02-27T11:51:42.063Z,36.05
2023-02-27T11:54:53.022Z,34.76
2023-02-27T11:58:09.679Z,35.08
2023-02-27T12:01:23.431Z,35.96
2023-02-27T12:04:47.761Z,37.48
2023-02-27T12:08:05.754Z,38.14
2023-02-27T12:11:20.793Z,39.47
2023-02-27T12:14:30.657Z,37.09
2023-02-27T12:17:47.986Z,37.32
2023-02-27T12:21:06.889Z,37.28
2023-02-27T12:24:19.055Z,38.17
2023-02-27T12:27:26.314Z,38.12
2023-02-27T12:30:39.858Z,38.11
2023-02-27T12:33:52.473Z,38.24
2023-02-27T12:37:01.381Z,36.51
2023-02-27T12:40:13.694Z,37.18
2023-02-27T12:43:40.628Z,36.62
2023-02-27T12:47:06.802Z,37.83
2023-02-27T12:50:16.896Z,37.82
2023-02-27T12:53:52.233Z,38.64
2023-02-27T12:57:01.181Z,39.58
2023-02-27T13:00:22.159Z,38.64
2023-02-27T13:03:48.979Z,37.62
2023-02-27T13:07:04.961Z,39.38
2023-02-27T13:10:21.716Z,37.93
2023-02-27T13:13:38.483Z,39.30
2023-02-27T13:16:44.910Z,44.06
2023-02-27T13:19:53.132Z,43.81
2023-02-27T13:22:58.974Z,41.67
2023-02-27T13:26:07.357Z,48.99
2023-02-27T13:29:20.433Z,40.38
2023-02-27T13:33:01.589Z,46.77
2023-02-27T13:36:26.520Z,41.17
2023-02-27T13:39:51.869Z,43.41
2023-02-27T13:43:01.954Z,41.02
2023-02-27T13:46:34.054Z,43.34
2023-02-27T13:49:43.080Z,40.65
2023-02-27T13:52:46.907Z,43.49
2023-02-27T13:55:55.401Z,40.39
2023-02-27T13:59:11.141Z,41.63
2023-02-27T14:02:14.534Z,40.79
2023-02-27T14:05:31.257Z,40.80
2023-02-27T14:08:48.093Z,41.55
2023-02-27T14:11:58.084Z,39.41
2023-02-27T14:15:03.057Z,41.38
2023-02-27T14:18:44.430Z,39.40
2023-02-27T14:22:03.049Z,41.20
2023-02-27T14:25:28.791Z,40.51
2023-02-27T14:28:36.513Z,46.95
2023-02-27T14:31:44.537Z,44.21
2023-02-27T14:34:48.378Z,47.95
2023-02-27T14:37:53.512Z,41.67
2023-02-27T14:41:22.441Z,40.00
2023-02-27T14:44:28.643Z,40.65
2023-02-27T14:47:34.613Z,45.45
2023-02-27T14:50:40.907Z,42.53
2023-02-27T14:53:44.389Z,42.30
2023-02-27T14:57:02.102Z,43.67
2023-02-27T15:00:05.644Z,41.73
2023-02-27T15:03:37.844Z,43.90
2023-02-27T15:06:46.456Z,41.72
2023-02-27T15:09:50.037Z,48.24
2023-02-27T15:12:53.138Z,44.67
2023-02-27T15:16:23.746Z,43.03
2023-02-27T15:19:28.818Z,42.50
2023-02-27T15:22:39.818Z,41.37
2023-02-27T15:25:43.473Z,50.61
2023-02-27T15:28:48.485Z,44.81
2023-02-27T15:31:51.763Z,50.93
2023-02-27T15:34:59.272Z,41.34
2023-02-27T15:38:19.487Z,43.09
2023-02-27T15:41:23.317Z,41.64
2023-02-27T15:44:45.601Z,42.62
2023-02-27T15:47:49.060Z,42.42
2023-02-27T15:50:58.210Z,42.51
2023-02-27T15:54:04.354Z,43.32
2023-02-27T15:57:07.692Z,43.80
2023-02-27T16:00:13.187Z,43.35
2023-02-27T16:03:23.326Z,43.67
2023-02-27T16:06:40.148Z,43.83
2023-02-27T16:09:47.493Z,44.25
2023-02-27T16:12:53.086Z,44.18
2023-02-27T16:16:05.364Z,43.85
2023-02-27T16:19:31.646Z,44.67
2023-02-27T16:22:34.894Z,44.50
2023-02-27T16:25:37.486Z,44.48
2023-02-27T16:29:21.067Z,44.60
2023-02-27T16:32:35.055Z,44.68
2023-02-27T16:35:39.953Z,45.15
2023-02-27T16:38:42.759Z,45.46
2023-02-27T16:41:46.419Z,45.72
2023-02-27T16:44:49.240Z,46.07
2023-02-27T16:47:55.011Z,46.41
2023-02-27T16:50:58.022Z,46.53
2023-02-27T16:54:01.035Z,47.19
2023-02-27T16:57:06.049Z,47.23
2023-02-27T17:00:18.570Z,46.44
2023-02-27T17:03:21.358Z,46.98
2023-02-27T17:06:25.686Z,47.58
2023-02-27T17:09:30.715Z,47.05
2023-02-27T17:12:34.878Z,47.27
2023-02-27T17:15:37.941Z,47.77
2023-02-27T17:22:43.039Z,48.59
2023-02-27T17:25:46.251Z,49.27
2023-02-27T17:28:48.909Z,49.05
2023-02-27T17:31:53.031Z,49.34
2023-02-27T17:34:56.797Z,49.55
2023-02-27T17:37:59.805Z,49.93
2023-02-27T17:41:10.818Z,50.13
2023-02-27T17:44:14.673Z,50.47
2023-02-27T17:47:17.956Z,50.07
2023-02-27T17:50:21.836Z,50.46
2023-02-27T17:53:25.397Z,50.45
2023-02-27T17:56:29.362Z,51.27
2023-02-27T17:59:32.832Z,51.70
2023-02-27T18:02:37.347Z,52.17
2023-02-27T18:05:53.179Z,52.00
2023-02-27T18:08:56.154Z,51.84
2023-02-27T18:12:02.961Z,52.92
2023-02-27T18:15:06.587Z,53.51
2023-02-27T18:18:10.395Z,54.34
2023-02-27T18:21:21.837Z,54.73
2023-02-27T18:24:25.966Z,55.54
2023-02-27T18:27:28.932Z,55.80
2023-02-27T18:30:37.493Z,56.40
2023-02-27T18:33:41.467Z,57.25
2023-02-27T18:36:44.491Z,57.17
2023-02-27T18:39:48.018Z,57.24
2023-02-27T18:42:52.497Z,57.85
2023-02-27T18:45:55.547Z,58.22
2023-02-27T18:48:59.667Z,58.28
2023-02-27T18:52:04.027Z,59.07
2023-02-27T18:55:09.601Z,59.49
2023-02-27T18:58:13.904Z,59.37
2023-02-27T19:01:23.845Z,59.52
2023-02-27T19:04:26.775Z,59.21
2023-02-27T19:07:31.290Z,58.27
2023-02-27T19:10:38.297Z,58.66
2023-02-27T19:13:41.689Z,58.45
2023-02-27T19:16:46.189Z,58.27
2023-02-27T19:19:56.053Z,58.32
2023-02-27T19:23:02.634Z,58.41
2023-02-27T19:26:06.919Z,58.14
2023-02-27T19:29:09.938Z,58.23
2023-02-27T19:32:14.881Z,58.00
2023-02-27T19:35:19.174Z,58.75
2023-02-27T19:38:23.536Z,58.76
2023-02-27T19:41:28.009Z,58.88
2023-02-27T19:44:31.280Z,58.79
2023-02-27T19:47:36.630Z,59.32
2023-02-27T19:50:40.776Z,58.84
2023-02-27T19:53:46.007Z,59.11
2023-02-27T19:56:49.090Z,59.27
2023-02-27T20:00:00.589Z,59.63
2023-02-27T20:03:05.053Z,59.38
2023-02-27T20:06:24.370Z,60.20
2023-02-27T20:09:27.773Z,59.90
2023-02-27T20:12:30.921Z,60.19
2023-02-27T20:15:43.860Z,59.89
2023-02-27T20:18:47.921Z,60.15
2023-02-27T20:21:52.662Z,60.13
2023-02-27T20:24:56.843Z,60.17
2023-02-27T20:28:02.510Z,60.44
2023-02-27T20:31:12.862Z,60.23
2023-02-27T20:34:23.756Z,60.25
2023-02-27T20:37:31.997Z,60.97
2023-02-27T20:40:34.804Z,60.82
2023-02-27T20:43:38.830Z,61.24
2023-02-27T20:46:43.594Z,60.80
2023-02-27T20:49:46.464Z,60.85
2023-02-27T20:52:53.777Z,61.29
2023-02-27T20:55:57.577Z,61.10
2023-02-27T20:59:03.847Z,61.31
2023-02-27T21:02:09.833Z,60.95
2023-02-27T21:05:13.694Z,61.13
2023-02-27T21:08:17.582Z,61.72
2023-02-27T21:11:27.796Z,61.50
2023-02-27T21:14:31.190Z,61.50
2023-02-27T21:17:33.776Z,61.54
2023-02-27T21:20:39.840Z,62.00
2023-02-27T21:23:43.762Z,62.06
2023-02-27T21:26:46.643Z,62.34
2023-02-27T21:29:50.608Z,62.25
2023-02-27T21:32:54.057Z,61.95
2023-02-27T21:35:56.775Z,62.61
2023-02-27T21:39:02.947Z,62.13
2023-02-27T21:42:06.808Z,61.88
2023-02-27T21:45:10.467Z,62.00
2023-02-27T21:48:13.718Z,62.22
2023-02-27T21:51:23.675Z,62.86
2023-02-27T21:54:32.649Z,62.36
2023-02-27T21:57:41.879Z,61.81
2023-02-27T22:00:45.118Z,61.65
2023-02-27T22:03:53.626Z,61.49
2023-02-27T22:06:56.643Z,61.20
2023-02-27T22:10:00.000Z,61.63
2023-02-27T22:13:02.979Z,61.52
2023-02-27T22:16:09.057Z,62.00
2023-02-27T22:19:19.815Z,62.60
2023-02-27T22:22:23.285Z,62.82
2023-02-27T22:25:26.297Z,62.77
2023-02-27T22:28:33.594Z,62.96
2023-02-27T22:31:38.126Z,63.09
2023-02-27T22:34:41.279Z,62.53
2023-02-27T22:37:47.301Z,62.25
2023-02-27T22:40:50.689Z,62.60
2023-02-27T22:43:53.880Z,62.88
2023-02-27T22:46:57.067Z,61.95
2023-02-27T22:50:00.041Z,62.27
2023-02-27T22:53:05.165Z,62.20
2023-02-27T22:56:17.445Z,62.38
2023-02-27T22:59:21.654Z,62.48
2023-02-27T23:02:24.557Z,61.79
2023-02-27T23:05:30.090Z,61.18
2023-02-27T23:08:33.670Z,61.96
2023-02-27T23:11:36.785Z,61.65
2023-02-27T23:14:39.518Z,61.02
2023-02-27T23:17:52.930Z,60.07
2023-02-27T23:21:03.791Z,59.98
2023-02-27T23:24:12.395Z,59.84
2023-02-27T23:27:25.710Z,59.70
2023-02-27T23:30:29.809Z,60.18
2023-02-27T23:33:33.064Z,60.15
2023-02-27T23:36:37.139Z,59.84
2023-02-27T23:39:39.759Z,59.56
2023-02-27T23:42:42.872Z,59.17
2023-02-27T23:45:45.760Z,59.15
2023-02-27T23:48:49.441Z,59.47
2023-02-27T23:51:52.037Z,60.14
2023-02-27T23:54:55.217Z,60.70
2023-02-27T23:57:59.821Z,61.06
